sensor_id;sensor_type;location;lat;lon;timestamp;P1;durP1;ratioP1;P2;durP2;ratioP2
52035;SDS011;38046;49.448;32.074;2023-04-10T00:00:07;18.50;;;13.68;;
52035;SDS011;38046;49.448;32.074;2023-04-10T00:02:34;18.55;;;13.95;;
52035;SDS011;38046;49.448;32.074;2023-04-10T00:05:01;21.35;;;14.68;;
52035;SDS011;38046;49.448;32.074;2023-04-10T00:07:27;20.55;;;14.25;;
52035;SDS011;38046;49.448;32.074;2023-04-10T00:09:52;19.75;;;14.00;;
52035;SDS011;38046;49.448;32.074;2023-04-10T00:12:18;21.95;;;14.77;;
52035;SDS011;38046;49.448;32.074;2023-04-10T00:14:44;20.42;;;14.43;;
52035;SDS011;38046;49.448;32.074;2023-04-10T00:17:10;18.60;;;14.25;;
52035;SDS011;38046;49.448;32.074;2023-04-10T00:19:36;20.50;;;13.80;;
52035;SDS011;38046;49.448;32.074;2023-04-10T00:22:01;18.20;;;14.18;;
52035;SDS011;38046;49.448;32.074;2023-04-10T00:24:27;19.35;;;14.05;;
52035;SDS011;38046;49.448;32.074;2023-04-10T00:26:53;19.02;;;14.00;;
52035;SDS011;38046;49.448;32.074;2023-04-10T00:29:20;19.42;;;13.73;;
52035;SDS011;38046;49.448;32.074;2023-04-10T00:31:46;19.20;;;14.43;;
52035;SDS011;38046;49.448;32.074;2023-04-10T00:34:12;17.50;;;13.07;;
52035;SDS011;38046;49.448;32.074;2023-04-10T00:36:38;17.17;;;13.60;;
52035;SDS011;38046;49.448;32.074;2023-04-10T00:39:03;18.33;;;13.18;;
52035;SDS011;38046;49.448;32.074;2023-04-10T00:41:29;16.60;;;12.60;;
52035;SDS011;38046;49.448;32.074;2023-04-10T00:43:55;16.80;;;13.40;;
52035;SDS011;38046;49.448;32.074;2023-04-10T00:46:22;17.95;;;13.10;;
52035;SDS011;38046;49.448;32.074;2023-04-10T00:48:48;18.13;;;13.35;;
52035;SDS011;38046;49.448;32.074;2023-04-10T00:51:16;19.27;;;13.63;;
52035;SDS011;38046;49.448;32.074;2023-04-10T00:53:44;20.33;;;14.68;;
52035;SDS011;38046;49.448;32.074;2023-04-10T00:56:17;19.88;;;14.05;;
52035;SDS011;38046;49.448;32.074;2023-04-10T00:58:43;22.23;;;14.50;;
52035;SDS011;38046;49.448;32.074;2023-04-10T01:01:09;18.08;;;13.63;;
52035;SDS011;38046;49.448;32.074;2023-04-10T01:03:35;21.52;;;14.02;;
52035;SDS011;38046;49.448;32.074;2023-04-10T01:06:17;18.83;;;13.57;;
52035;SDS011;38046;49.448;32.074;2023-04-10T01:11:44;20.40;;;13.70;;
52035;SDS011;38046;49.448;32.074;2023-04-10T01:14:24;25.40;;;14.75;;
52035;SDS011;38046;49.448;32.074;2023-04-10T01:17:06;21.52;;;14.55;;
52035;SDS011;38046;49.448;32.074;2023-04-10T01:22:11;19.98;;;14.15;;
52035;SDS011;38046;49.448;32.074;2023-04-10T01:30:11;22.85;;;15.07;;
52035;SDS011;38046;49.448;32.074;2023-04-10T01:32:41;23.88;;;15.25;;
52035;SDS011;38046;49.448;32.074;2023-04-10T01:35:08;21.05;;;14.25;;
52035;SDS011;38046;49.448;32.074;2023-04-10T01:37:37;25.73;;;15.95;;
52035;SDS011;38046;49.448;32.074;2023-04-10T01:40:07;24.85;;;15.82;;
52035;SDS011;38046;49.448;32.074;2023-04-10T01:42:40;24.33;;;16.30;;
52035;SDS011;38046;49.448;32.074;2023-04-10T01:45:11;21.63;;;15.13;;
52035;SDS011;38046;49.448;32.074;2023-04-10T01:47:42;29.00;;;16.00;;
52035;SDS011;38046;49.448;32.074;2023-04-10T01:50:08;27.63;;;16.30;;
52035;SDS011;38046;49.448;32.074;2023-04-10T01:52:36;25.20;;;16.45;;
52035;SDS011;38046;49.448;32.074;2023-04-10T01:55:03;29.10;;;17.00;;
52035;SDS011;38046;49.448;32.074;2023-04-10T01:57:31;30.25;;;16.10;;
52035;SDS011;38046;49.448;32.074;2023-04-10T01:59:57;30.25;;;16.58;;
52035;SDS011;38046;49.448;32.074;2023-04-10T02:02:22;28.55;;;15.60;;
52035;SDS011;38046;49.448;32.074;2023-04-10T02:04:48;29.20;;;16.45;;
52035;SDS011;38046;49.448;32.074;2023-04-10T02:07:24;26.50;;;15.55;;
52035;SDS011;38046;49.448;32.074;2023-04-10T02:10:12;29.25;;;16.52;;
52035;SDS011;38046;49.448;32.074;2023-04-10T02:15:06;30.30;;;15.77;;
52035;SDS011;38046;49.448;32.074;2023-04-10T02:17:34;27.70;;;15.18;;
52035;SDS011;38046;49.448;32.074;2023-04-10T02:20:00;24.27;;;15.68;;
52035;SDS011;38046;49.448;32.074;2023-04-10T02:22:28;27.35;;;16.13;;
52035;SDS011;38046;49.448;32.074;2023-04-10T02:24:54;28.25;;;16.40;;
52035;SDS011;38046;49.448;32.074;2023-04-10T02:27:31;26.45;;;15.25;;
52035;SDS011;38046;49.448;32.074;2023-04-10T02:29:58;24.10;;;14.80;;
52035;SDS011;38046;49.448;32.074;2023-04-10T02:32:25;28.77;;;15.52;;
52035;SDS011;38046;49.448;32.074;2023-04-10T02:34:51;24.10;;;14.15;;
52035;SDS011;38046;49.448;32.074;2023-04-10T02:37:17;22.75;;;14.52;;
52035;SDS011;38046;49.448;32.074;2023-04-10T02:39:42;19.95;;;12.88;;
52035;SDS011;38046;49.448;32.074;2023-04-10T02:42:08;20.08;;;13.52;;
52035;SDS011;38046;49.448;32.074;2023-04-10T02:44:34;23.67;;;14.68;;
52035;SDS011;38046;49.448;32.074;2023-04-10T02:47:00;18.67;;;12.63;;
52035;SDS011;38046;49.448;32.074;2023-04-10T02:49:25;20.05;;;12.00;;
52035;SDS011;38046;49.448;32.074;2023-04-10T02:51:51;20.73;;;12.13;;
52035;SDS011;38046;49.448;32.074;2023-04-10T02:54:17;18.30;;;11.40;;
52035;SDS011;38046;49.448;32.074;2023-04-10T02:56:42;19.75;;;13.52;;
52035;SDS011;38046;49.448;32.074;2023-04-10T02:59:08;20.48;;;11.65;;
52035;SDS011;38046;49.448;32.074;2023-04-10T03:01:34;16.75;;;11.43;;
52035;SDS011;38046;49.448;32.074;2023-04-10T03:04:00;17.65;;;11.07;;
52035;SDS011;38046;49.448;32.074;2023-04-10T03:06:27;20.30;;;12.48;;
52035;SDS011;38046;49.448;32.074;2023-04-10T03:08:53;14.55;;;11.52;;
52035;SDS011;38046;49.448;32.074;2023-04-10T03:11:19;18.83;;;12.13;;
52035;SDS011;38046;49.448;32.074;2023-04-10T03:13:44;20.60;;;12.32;;
52035;SDS011;38046;49.448;32.074;2023-04-10T03:16:11;16.95;;;12.43;;
52035;SDS011;38046;49.448;32.074;2023-04-10T03:18:37;19.98;;;12.90;;
52035;SDS011;38046;49.448;32.074;2023-04-10T03:21:02;18.92;;;12.55;;
52035;SDS011;38046;49.448;32.074;2023-04-10T03:23:28;18.75;;;13.20;;
52035;SDS011;38046;49.448;32.074;2023-04-10T03:25:54;20.05;;;12.15;;
52035;SDS011;38046;49.448;32.074;2023-04-10T03:28:20;20.88;;;12.50;;
52035;SDS011;38046;49.448;32.074;2023-04-10T03:30:46;19.15;;;12.73;;
52035;SDS011;38046;49.448;32.074;2023-04-10T03:33:12;22.50;;;13.20;;
52035;SDS011;38046;49.448;32.074;2023-04-10T03:35:39;18.70;;;13.90;;
52035;SDS011;38046;49.448;32.074;2023-04-10T03:38:05;21.52;;;13.52;;
52035;SDS011;38046;49.448;32.074;2023-04-10T03:40:31;21.55;;;13.32;;
52035;SDS011;38046;49.448;32.074;2023-04-10T03:42:58;20.40;;;12.70;;
52035;SDS011;38046;49.448;32.074;2023-04-10T03:45:26;21.00;;;13.07;;
52035;SDS011;38046;49.448;32.074;2023-04-10T03:47:52;17.45;;;11.88;;
52035;SDS011;38046;49.448;32.074;2023-04-10T03:50:17;16.50;;;10.40;;
52035;SDS011;38046;49.448;32.074;2023-04-10T03:52:43;14.50;;;10.30;;
52035;SDS011;38046;49.448;32.074;2023-04-10T03:55:09;11.45;;;8.80;;
52035;SDS011;38046;49.448;32.074;2023-04-10T03:57:35;12.48;;;9.15;;
52035;SDS011;38046;49.448;32.074;2023-04-10T04:00:01;16.92;;;10.57;;
52035;SDS011;38046;49.448;32.074;2023-04-10T04:02:27;18.33;;;12.25;;
52035;SDS011;38046;49.448;32.074;2023-04-10T04:04:53;21.45;;;13.70;;
52035;SDS011;38046;49.448;32.074;2023-04-10T04:07:19;22.13;;;13.05;;
52035;SDS011;38046;49.448;32.074;2023-04-10T04:09:44;19.65;;;13.27;;
52035;SDS011;38046;49.448;32.074;2023-04-10T04:12:10;19.55;;;12.68;;
52035;SDS011;38046;49.448;32.074;2023-04-10T04:14:36;19.83;;;12.95;;
52035;SDS011;38046;49.448;32.074;2023-04-10T04:17:02;17.00;;;12.48;;
52035;SDS011;38046;49.448;32.074;2023-04-10T04:19:28;16.08;;;11.48;;
52035;SDS011;38046;49.448;32.074;2023-04-10T04:21:53;20.42;;;11.90;;
52035;SDS011;38046;49.448;32.074;2023-04-10T04:24:19;17.42;;;11.93;;
52035;SDS011;38046;49.448;32.074;2023-04-10T04:26:45;15.95;;;11.15;;
52035;SDS011;38046;49.448;32.074;2023-04-10T04:29:11;17.90;;;12.55;;
52035;SDS011;38046;49.448;32.074;2023-04-10T04:31:37;19.00;;;11.93;;
52035;SDS011;38046;49.448;32.074;2023-04-10T04:34:02;17.55;;;12.55;;
52035;SDS011;38046;49.448;32.074;2023-04-10T04:36:28;16.75;;;12.02;;
52035;SDS011;38046;49.448;32.074;2023-04-10T04:38:54;15.77;;;10.80;;
52035;SDS011;38046;49.448;32.074;2023-04-10T04:41:19;15.50;;;10.63;;
52035;SDS011;38046;49.448;32.074;2023-04-10T04:43:45;16.55;;;11.43;;
52035;SDS011;38046;49.448;32.074;2023-04-10T04:46:13;17.65;;;11.32;;
52035;SDS011;38046;49.448;32.074;2023-04-10T04:48:40;16.00;;;11.18;;
52035;SDS011;38046;49.448;32.074;2023-04-10T04:51:06;17.65;;;12.07;;
52035;SDS011;38046;49.448;32.074;2023-04-10T04:53:32;18.35;;;11.77;;
52035;SDS011;38046;49.448;32.074;2023-04-10T04:55:57;16.83;;;11.82;;
52035;SDS011;38046;49.448;32.074;2023-04-10T04:58:23;18.02;;;11.57;;
52035;SDS011;38046;49.448;32.074;2023-04-10T05:00:50;18.58;;;12.10;;
52035;SDS011;38046;49.448;32.074;2023-04-10T05:03:16;20.70;;;12.70;;
52035;SDS011;38046;49.448;32.074;2023-04-10T05:05:42;20.55;;;13.48;;
52035;SDS011;38046;49.448;32.074;2023-04-10T05:08:08;18.48;;;12.07;;
52035;SDS011;38046;49.448;32.074;2023-04-10T05:10:34;18.65;;;12.43;;
52035;SDS011;38046;49.448;32.074;2023-04-10T05:13:00;18.15;;;12.30;;
52035;SDS011;38046;49.448;32.074;2023-04-10T05:15:26;17.13;;;11.77;;
52035;SDS011;38046;49.448;32.074;2023-04-10T05:17:52;22.60;;;13.48;;
52035;SDS011;38046;49.448;32.074;2023-04-10T05:20:18;21.25;;;13.88;;
52035;SDS011;38046;49.448;32.074;2023-04-10T05:22:45;21.58;;;13.60;;
52035;SDS011;38046;49.448;32.074;2023-04-10T05:25:11;24.23;;;14.98;;
52035;SDS011;38046;49.448;32.074;2023-04-10T05:27:37;24.55;;;14.85;;
52035;SDS011;38046;49.448;32.074;2023-04-10T05:30:03;24.02;;;14.93;;
52035;SDS011;38046;49.448;32.074;2023-04-10T05:32:29;23.33;;;15.45;;
52035;SDS011;38046;49.448;32.074;2023-04-10T05:34:54;25.48;;;15.75;;
52035;SDS011;38046;49.448;32.074;2023-04-10T05:37:20;22.45;;;15.15;;
52035;SDS011;38046;49.448;32.074;2023-04-10T05:39:45;23.70;;;15.05;;
52035;SDS011;38046;49.448;32.074;2023-04-10T05:42:11;27.58;;;15.10;;
52035;SDS011;38046;49.448;32.074;2023-04-10T05:44:37;20.15;;;14.10;;
52035;SDS011;38046;49.448;32.074;2023-04-10T05:47:03;23.88;;;16.02;;
52035;SDS011;38046;49.448;32.074;2023-04-10T05:49:29;24.92;;;15.52;;
52035;SDS011;38046;49.448;32.074;2023-04-10T05:51:55;23.73;;;15.77;;
52035;SDS011;38046;49.448;32.074;2023-04-10T05:54:21;25.70;;;15.90;;
52035;SDS011;38046;49.448;32.074;2023-04-10T05:56:47;24.50;;;16.00;;
52035;SDS011;38046;49.448;32.074;2023-04-10T05:59:12;23.90;;;14.98;;
52035;SDS011;38046;49.448;32.074;2023-04-10T06:01:38;23.90;;;15.73;;
52035;SDS011;38046;49.448;32.074;2023-04-10T06:04:05;23.77;;;15.20;;
52035;SDS011;38046;49.448;32.074;2023-04-10T06:06:30;24.13;;;14.82;;
52035;SDS011;38046;49.448;32.074;2023-04-10T06:08:57;24.63;;;15.07;;
52035;SDS011;38046;49.448;32.074;2023-04-10T06:11:23;23.65;;;15.00;;
52035;SDS011;38046;49.448;32.074;2023-04-10T06:13:49;25.80;;;15.50;;
52035;SDS011;38046;49.448;32.074;2023-04-10T06:16:14;24.60;;;16.33;;
52035;SDS011;38046;49.448;32.074;2023-04-10T06:18:41;22.23;;;14.32;;
52035;SDS011;38046;49.448;32.074;2023-04-10T06:21:07;25.25;;;15.32;;
52035;SDS011;38046;49.448;32.074;2023-04-10T06:23:32;25.27;;;15.27;;
52035;SDS011;38046;49.448;32.074;2023-04-10T06:25:58;24.73;;;16.58;;
52035;SDS011;38046;49.448;32.074;2023-04-10T06:28:25;24.45;;;15.27;;
52035;SDS011;38046;49.448;32.074;2023-04-10T06:30:51;26.00;;;15.63;;
52035;SDS011;38046;49.448;32.074;2023-04-10T06:33:16;23.95;;;15.60;;
52035;SDS011;38046;49.448;32.074;2023-04-10T06:35:42;25.00;;;14.93;;
52035;SDS011;38046;49.448;32.074;2023-04-10T06:38:08;22.75;;;14.77;;
52035;SDS011;38046;49.448;32.074;2023-04-10T06:40:34;24.70;;;15.55;;
52035;SDS011;38046;49.448;32.074;2023-04-10T06:43:00;22.30;;;14.38;;
52035;SDS011;38046;49.448;32.074;2023-04-10T06:45:25;23.08;;;13.43;;
52035;SDS011;38046;49.448;32.074;2023-04-10T06:47:51;22.35;;;14.52;;
52035;SDS011;38046;49.448;32.074;2023-04-10T06:50:17;22.45;;;15.02;;
52035;SDS011;38046;49.448;32.074;2023-04-10T06:52:43;23.17;;;14.38;;
52035;SDS011;38046;49.448;32.074;2023-04-10T06:55:10;21.02;;;14.45;;
52035;SDS011;38046;49.448;32.074;2023-04-10T06:57:37;23.10;;;14.63;;
52035;SDS011;38046;49.448;32.074;2023-04-10T07:00:03;19.23;;;13.57;;
52035;SDS011;38046;49.448;32.074;2023-04-10T07:02:30;19.75;;;13.90;;
52035;SDS011;38046;49.448;32.074;2023-04-10T07:04:55;22.25;;;13.88;;
52035;SDS011;38046;49.448;32.074;2023-04-10T07:07:21;21.38;;;14.30;;
52035;SDS011;38046;49.448;32.074;2023-04-10T07:09:47;20.20;;;13.43;;
52035;SDS011;38046;49.448;32.074;2023-04-10T07:12:13;22.45;;;14.95;;
52035;SDS011;38046;49.448;32.074;2023-04-10T07:14:39;20.80;;;14.18;;
52035;SDS011;38046;49.448;32.074;2023-04-10T07:17:05;24.00;;;14.80;;
52035;SDS011;38046;49.448;32.074;2023-04-10T07:19:31;23.10;;;14.40;;
52035;SDS011;38046;49.448;32.074;2023-04-10T07:21:56;23.45;;;15.90;;
52035;SDS011;38046;49.448;32.074;2023-04-10T07:24:23;23.42;;;14.98;;
52035;SDS011;38046;49.448;32.074;2023-04-10T07:26:49;21.70;;;15.05;;
52035;SDS011;38046;49.448;32.074;2023-04-10T07:29:15;23.77;;;13.80;;
52035;SDS011;38046;49.448;32.074;2023-04-10T07:31:41;22.25;;;14.57;;
52035;SDS011;38046;49.448;32.074;2023-04-10T07:34:07;20.92;;;14.13;;
52035;SDS011;38046;49.448;32.074;2023-04-10T07:36:32;24.05;;;14.10;;
52035;SDS011;38046;49.448;32.074;2023-04-10T07:38:58;23.38;;;14.77;;
52035;SDS011;38046;49.448;32.074;2023-04-10T07:41:24;19.50;;;14.20;;
52035;SDS011;38046;49.448;32.074;2023-04-10T07:43:50;23.85;;;15.13;;
52035;SDS011;38046;49.448;32.074;2023-04-10T07:46:15;19.10;;;14.07;;
52035;SDS011;38046;49.448;32.074;2023-04-10T07:48:41;20.15;;;13.60;;
52035;SDS011;38046;49.448;32.074;2023-04-10T07:51:08;20.45;;;14.75;;
52035;SDS011;38046;49.448;32.074;2023-04-10T07:53:34;20.02;;;13.40;;
52035;SDS011;38046;49.448;32.074;2023-04-10T07:56:01;20.42;;;13.63;;
52035;SDS011;38046;49.448;32.074;2023-04-10T07:58:26;20.00;;;13.13;;
52035;SDS011;38046;49.448;32.074;2023-04-10T08:00:52;21.13;;;13.52;;
52035;SDS011;38046;49.448;32.074;2023-04-10T08:03:18;18.05;;;12.93;;
52035;SDS011;38046;49.448;32.074;2023-04-10T08:05:43;19.88;;;13.85;;
52035;SDS011;38046;49.448;32.074;2023-04-10T08:08:10;22.00;;;13.73;;
52035;SDS011;38046;49.448;32.074;2023-04-10T08:10:36;19.98;;;13.65;;
52035;SDS011;38046;49.448;32.074;2023-04-10T08:13:03;22.58;;;14.50;;
52035;SDS011;38046;49.448;32.074;2023-04-10T08:15:29;20.88;;;13.70;;
52035;SDS011;38046;49.448;32.074;2023-04-10T08:17:55;17.48;;;12.70;;
52035;SDS011;38046;49.448;32.074;2023-04-10T08:20:20;17.15;;;12.93;;
52035;SDS011;38046;49.448;32.074;2023-04-10T08:22:47;19.02;;;14.02;;
52035;SDS011;38046;49.448;32.074;2023-04-10T08:25:13;20.95;;;14.15;;
52035;SDS011;38046;49.448;32.074;2023-04-10T08:27:39;18.98;;;13.48;;
52035;SDS011;38046;49.448;32.074;2023-04-10T08:30:05;19.42;;;13.57;;
52035;SDS011;38046;49.448;32.074;2023-04-10T08:32:33;19.00;;;13.10;;
52035;SDS011;38046;49.448;32.074;2023-04-10T08:35:00;17.08;;;12.93;;
52035;SDS011;38046;49.448;32.074;2023-04-10T08:37:25;17.75;;;12.85;;
52035;SDS011;38046;49.448;32.074;2023-04-10T08:39:51;17.40;;;12.80;;
52035;SDS011;38046;49.448;32.074;2023-04-10T08:42:17;19.25;;;13.73;;
52035;SDS011;38046;49.448;32.074;2023-04-10T08:44:44;20.17;;;13.43;;
52035;SDS011;38046;49.448;32.074;2023-04-10T08:47:12;16.77;;;11.82;;
52035;SDS011;38046;49.448;32.074;2023-04-10T08:49:40;17.10;;;12.52;;
52035;SDS011;38046;49.448;32.074;2023-04-10T08:52:19;18.25;;;13.82;;
52035;SDS011;38046;49.448;32.074;2023-04-10T08:54:47;17.35;;;12.77;;
52035;SDS011;38046;49.448;32.074;2023-04-10T08:57:15;18.88;;;13.35;;
52035;SDS011;38046;49.448;32.074;2023-04-10T08:59:43;16.13;;;12.05;;
52035;SDS011;38046;49.448;32.074;2023-04-10T09:02:09;18.70;;;13.18;;
52035;SDS011;38046;49.448;32.074;2023-04-10T09:04:35;18.17;;;13.88;;
52035;SDS011;38046;49.448;32.074;2023-04-10T09:07:00;19.00;;;13.25;;
52035;SDS011;38046;49.448;32.074;2023-04-10T09:09:26;16.67;;;12.18;;
52035;SDS011;38046;49.448;32.074;2023-04-10T09:11:56;18.17;;;13.18;;
52035;SDS011;38046;49.448;32.074;2023-04-10T09:19:42;16.77;;;12.75;;
52035;SDS011;38046;49.448;32.074;2023-04-10T09:22:12;16.10;;;11.98;;
52035;SDS011;38046;49.448;32.074;2023-04-10T09:24:39;16.10;;;11.38;;
52035;SDS011;38046;49.448;32.074;2023-04-10T09:27:06;16.33;;;11.18;;
52035;SDS011;38046;49.448;32.074;2023-04-10T09:29:40;13.75;;;10.98;;
52035;SDS011;38046;49.448;32.074;2023-04-10T09:32:12;14.45;;;11.43;;
52035;SDS011;38046;49.448;32.074;2023-04-10T09:34:58;15.43;;;11.75;;
52035;SDS011;38046;49.448;32.074;2023-04-10T09:37:30;17.13;;;11.70;;
52035;SDS011;38046;49.448;32.074;2023-04-10T09:39:56;15.02;;;11.95;;
52035;SDS011;38046;49.448;32.074;2023-04-10T09:42:35;17.45;;;12.60;;
52035;SDS011;38046;49.448;32.074;2023-04-10T09:45:02;15.02;;;11.50;;
52035;SDS011;38046;49.448;32.074;2023-04-10T09:47:28;18.80;;;12.73;;
52035;SDS011;38046;49.448;32.074;2023-04-10T09:49:58;14.38;;;11.40;;
52035;SDS011;38046;49.448;32.074;2023-04-10T09:52:28;17.13;;;13.02;;
52035;SDS011;38046;49.448;32.074;2023-04-10T09:55:04;18.30;;;13.88;;
52035;SDS011;38046;49.448;32.074;2023-04-10T09:57:34;18.45;;;14.20;;
52035;SDS011;38046;49.448;32.074;2023-04-10T10:00:01;19.95;;;15.40;;
52035;SDS011;38046;49.448;32.074;2023-04-10T10:02:29;20.75;;;14.30;;
52035;SDS011;38046;49.448;32.074;2023-04-10T10:04:57;21.17;;;15.50;;
52035;SDS011;38046;49.448;32.074;2023-04-10T10:07:26;19.25;;;14.07;;
52035;SDS011;38046;49.448;32.074;2023-04-10T10:09:53;16.42;;;12.95;;
52035;SDS011;38046;49.448;32.074;2023-04-10T10:12:33;16.02;;;12.30;;
52035;SDS011;38046;49.448;32.074;2023-04-10T10:18:02;15.05;;;11.93;;
52035;SDS011;38046;49.448;32.074;2023-04-10T10:20:40;13.52;;;10.15;;
52035;SDS011;38046;49.448;32.074;2023-04-10T10:23:08;14.02;;;9.90;;
52035;SDS011;38046;49.448;32.074;2023-04-10T10:25:35;12.13;;;9.82;;
52035;SDS011;38046;49.448;32.074;2023-04-10T10:28:02;13.52;;;10.27;;
52035;SDS011;38046;49.448;32.074;2023-04-10T10:30:32;14.13;;;10.70;;
52035;SDS011;38046;49.448;32.074;2023-04-10T10:32:58;13.73;;;10.40;;
52035;SDS011;38046;49.448;32.074;2023-04-10T10:35:27;13.25;;;10.73;;
52035;SDS011;38046;49.448;32.074;2023-04-10T10:37:57;13.38;;;10.55;;
52035;SDS011;38046;49.448;32.074;2023-04-10T10:43:11;13.70;;;9.90;;
52035;SDS011;38046;49.448;32.074;2023-04-10T10:46:03;13.25;;;10.52;;
52035;SDS011;38046;49.448;32.074;2023-04-10T10:48:33;13.23;;;10.65;;
52035;SDS011;38046;49.448;32.074;2023-04-10T10:50:59;15.45;;;10.77;;
52035;SDS011;38046;49.448;32.074;2023-04-10T10:53:32;13.63;;;10.57;;
52035;SDS011;38046;49.448;32.074;2023-04-10T10:58:46;12.38;;;10.00;;
52035;SDS011;38046;49.448;32.074;2023-04-10T11:01:16;11.95;;;10.27;;
52035;SDS011;38046;49.448;32.074;2023-04-10T11:03:43;13.05;;;10.50;;
52035;SDS011;38046;49.448;32.074;2023-04-10T11:06:15;12.48;;;10.07;;
52035;SDS011;38046;49.448;32.074;2023-04-10T11:16:14;10.88;;;8.40;;
52035;SDS011;38046;49.448;32.074;2023-04-10T11:28:57;9.77;;;8.25;;
52035;SDS011;38046;49.448;32.074;2023-04-10T11:31:24;9.18;;;7.55;;
52035;SDS011;38046;49.448;32.074;2023-04-10T11:36:22;10.80;;;8.02;;
52035;SDS011;38046;49.448;32.074;2023-04-10T11:39:04;9.60;;;8.27;;
52035;SDS011;38046;49.448;32.074;2023-04-10T11:41:35;10.45;;;7.45;;
52035;SDS011;38046;49.448;32.074;2023-04-10T11:44:05;9.57;;;7.88;;
52035;SDS011;38046;49.448;32.074;2023-04-10T11:46:35;9.00;;;6.75;;
52035;SDS011;38046;49.448;32.074;2023-04-10T11:49:05;9.98;;;6.90;;
52035;SDS011;38046;49.448;32.074;2023-04-10T11:51:33;7.53;;;6.53;;
52035;SDS011;38046;49.448;32.074;2023-04-10T11:54:10;9.82;;;7.15;;
52035;SDS011;38046;49.448;32.074;2023-04-10T11:56:36;9.02;;;7.20;;
52035;SDS011;38046;49.448;32.074;2023-04-10T11:59:03;10.15;;;6.97;;
52035;SDS011;38046;49.448;32.074;2023-04-10T12:01:32;7.20;;;6.50;;
52035;SDS011;38046;49.448;32.074;2023-04-10T12:03:58;8.65;;;6.97;;
52035;SDS011;38046;49.448;32.074;2023-04-10T12:06:25;8.30;;;6.80;;
52035;SDS011;38046;49.448;32.074;2023-04-10T12:08:52;8.88;;;6.70;;
52035;SDS011;38046;49.448;32.074;2023-04-10T12:11:22;9.05;;;6.60;;
52035;SDS011;38046;49.448;32.074;2023-04-10T12:13:53;7.38;;;6.10;;
52035;SDS011;38046;49.448;32.074;2023-04-10T12:16:19;7.72;;;6.43;;
52035;SDS011;38046;49.448;32.074;2023-04-10T12:18:45;8.25;;;6.18;;
52035;SDS011;38046;49.448;32.074;2023-04-10T12:21:12;7.53;;;6.18;;
52035;SDS011;38046;49.448;32.074;2023-04-10T12:23:38;8.25;;;7.15;;
52035;SDS011;38046;49.448;32.074;2023-04-10T12:26:11;8.93;;;6.32;;
52035;SDS011;38046;49.448;32.074;2023-04-10T12:28:39;8.63;;;6.57;;
52035;SDS011;38046;49.448;32.074;2023-04-10T12:31:06;7.13;;;5.55;;
52035;SDS011;38046;49.448;32.074;2023-04-10T12:33:33;7.90;;;6.28;;
52035;SDS011;38046;49.448;32.074;2023-04-10T12:35:59;7.85;;;6.15;;
52035;SDS011;38046;49.448;32.074;2023-04-10T12:38:40;7.15;;;6.00;;
52035;SDS011;38046;49.448;32.074;2023-04-10T12:41:08;7.68;;;6.10;;
52035;SDS011;38046;49.448;32.074;2023-04-10T12:43:39;7.18;;;6.07;;
52035;SDS011;38046;49.448;32.074;2023-04-10T12:46:07;7.03;;;5.50;;
52035;SDS011;38046;49.448;32.074;2023-04-10T12:48:34;7.47;;;5.63;;
52035;SDS011;38046;49.448;32.074;2023-04-10T12:51:00;6.40;;;5.30;;
52035;SDS011;38046;49.448;32.074;2023-04-10T12:53:27;6.57;;;5.38;;
52035;SDS011;38046;49.448;32.074;2023-04-10T12:58:23;6.93;;;5.45;;
52035;SDS011;38046;49.448;32.074;2023-04-10T13:00:55;7.60;;;5.38;;
52035;SDS011;38046;49.448;32.074;2023-04-10T13:03:23;8.50;;;5.20;;
52035;SDS011;38046;49.448;32.074;2023-04-10T13:05:50;6.20;;;5.45;;
52035;SDS011;38046;49.448;32.074;2023-04-10T13:08:16;7.25;;;5.88;;
52035;SDS011;38046;49.448;32.074;2023-04-10T13:10:41;7.85;;;6.00;;
52035;SDS011;38046;49.448;32.074;2023-04-10T13:13:07;5.05;;;4.30;;
52035;SDS011;38046;49.448;32.074;2023-04-10T13:15:36;6.95;;;5.07;;
52035;SDS011;38046;49.448;32.074;2023-04-10T13:18:01;6.53;;;5.15;;
52035;SDS011;38046;49.448;32.074;2023-04-10T13:20:28;5.65;;;4.85;;
52035;SDS011;38046;49.448;32.074;2023-04-10T13:22:54;6.50;;;5.18;;
52035;SDS011;38046;49.448;32.074;2023-04-10T13:25:19;7.18;;;5.80;;
52035;SDS011;38046;49.448;32.074;2023-04-10T13:27:46;7.15;;;5.95;;
52035;SDS011;38046;49.448;32.074;2023-04-10T13:30:12;6.30;;;5.63;;
52035;SDS011;38046;49.448;32.074;2023-04-10T13:32:38;7.15;;;5.97;;
52035;SDS011;38046;49.448;32.074;2023-04-10T13:35:04;8.38;;;6.60;;
52035;SDS011;38046;49.448;32.074;2023-04-10T13:37:30;6.60;;;5.97;;
52035;SDS011;38046;49.448;32.074;2023-04-10T13:39:56;6.78;;;5.35;;
52035;SDS011;38046;49.448;32.074;2023-04-10T13:42:22;9.65;;;5.88;;
52035;SDS011;38046;49.448;32.074;2023-04-10T13:44:48;7.10;;;5.57;;
52035;SDS011;38046;49.448;32.074;2023-04-10T13:47:13;7.85;;;5.65;;
52035;SDS011;38046;49.448;32.074;2023-04-10T13:49:39;9.00;;;5.03;;
52035;SDS011;38046;49.448;32.074;2023-04-10T13:52:05;9.45;;;5.75;;
52035;SDS011;38046;49.448;32.074;2023-04-10T13:54:30;6.22;;;5.20;;
52035;SDS011;38046;49.448;32.074;2023-04-10T13:56:56;6.05;;;4.97;;
52035;SDS011;38046;49.448;32.074;2023-04-10T13:59:23;5.88;;;4.90;;
52035;SDS011;38046;49.448;32.074;2023-04-10T14:01:49;5.28;;;4.68;;
52035;SDS011;38046;49.448;32.074;2023-04-10T14:04:16;5.32;;;4.35;;
52035;SDS011;38046;49.448;32.074;2023-04-10T14:06:42;6.05;;;4.90;;
52035;SDS011;38046;49.448;32.074;2023-04-10T14:09:08;5.28;;;4.57;;
52035;SDS011;38046;49.448;32.074;2023-04-10T14:11:33;6.80;;;4.78;;
52035;SDS011;38046;49.448;32.074;2023-04-10T14:13:59;6.03;;;4.60;;
52035;SDS011;38046;49.448;32.074;2023-04-10T14:16:25;6.00;;;4.85;;
52035;SDS011;38046;49.448;32.074;2023-04-10T14:18:50;6.85;;;4.60;;
52035;SDS011;38046;49.448;32.074;2023-04-10T14:21:16;4.82;;;4.22;;
52035;SDS011;38046;49.448;32.074;2023-04-10T14:23:42;4.80;;;4.13;;
52035;SDS011;38046;49.448;32.074;2023-04-10T14:26:07;5.75;;;4.35;;
52035;SDS011;38046;49.448;32.074;2023-04-10T14:28:33;5.70;;;4.55;;
52035;SDS011;38046;49.448;32.074;2023-04-10T14:30:59;6.93;;;4.40;;
52035;SDS011;38046;49.448;32.074;2023-04-10T14:33:25;5.85;;;4.30;;
52035;SDS011;38046;49.448;32.074;2023-04-10T14:35:51;5.57;;;4.40;;
52035;SDS011;38046;49.448;32.074;2023-04-10T14:38:17;6.00;;;4.53;;
52035;SDS011;38046;49.448;32.074;2023-04-10T14:40:43;5.40;;;3.75;;
52035;SDS011;38046;49.448;32.074;2023-04-10T14:43:12;4.63;;;4.13;;
52035;SDS011;38046;49.448;32.074;2023-04-10T14:45:38;5.82;;;4.80;;
52035;SDS011;38046;49.448;32.074;2023-04-10T14:48:04;5.90;;;4.78;;
52035;SDS011;38046;49.448;32.074;2023-04-10T14:50:32;5.65;;;4.28;;
52035;SDS011;38046;49.448;32.074;2023-04-10T14:52:58;5.05;;;4.25;;
52035;SDS011;38046;49.448;32.074;2023-04-10T14:55:24;6.53;;;4.50;;
52035;SDS011;38046;49.448;32.074;2023-04-10T14:57:52;5.47;;;4.20;;
52035;SDS011;38046;49.448;32.074;2023-04-10T15:00:18;5.38;;;4.32;;
52035;SDS011;38046;49.448;32.074;2023-04-10T15:02:43;4.82;;;3.80;;
52035;SDS011;38046;49.448;32.074;2023-04-10T15:05:09;4.13;;;3.70;;